createdAt,value
2023-05-06T00:02:21.843Z,21.93
2023-05-06T00:07:26.021Z,21.87
2023-05-06T00:12:28.762Z,21.90
2023-05-06T00:17:31.548Z,21.84
2023-05-06T00:22:35.692Z,21.77
2023-05-06T00:27:38.798Z,21.79
2023-05-06T00:32:41.654Z,21.72
2023-05-06T00:37:46.439Z,21.69
2023-05-06T00:42:49.181Z,21.68
2023-05-06T00:47:52.330Z,21.64
2023-05-06T00:52:56.592Z,21.58
2023-05-06T00:57:59.511Z,21.62
2023-05-06T01:03:02.413Z,21.59
2023-05-06T01:08:11.142Z,21.55
2023-05-06T01:13:18.380Z,21.54
2023-05-06T01:18:22.572Z,21.53
2023-05-06T01:23:26.684Z,21.54
2023-05-06T01:28:29.470Z,21.49
2023-05-06T01:33:35.961Z,21.46
2023-05-06T01:38:44.104Z,21.44
2023-05-06T01:43:48.678Z,21.41
2023-05-06T01:48:53.734Z,21.38
2023-05-06T01:53:57.835Z,21.35
2023-05-06T01:59:00.925Z,21.33
2023-05-06T02:04:04.111Z,21.31
2023-05-06T02:09:08.362Z,21.29
2023-05-06T02:14:16.464Z,21.26
2023-05-06T02:19:19.318Z,21.22
2023-05-06T02:24:23.453Z,21.22
2023-05-06T02:29:26.352Z,21.20
2023-05-06T02:34:29.126Z,21.16
2023-05-06T02:39:33.264Z,21.10
2023-05-06T02:44:36.603Z,21.04
2023-05-06T02:49:39.377Z,21.03
2023-05-06T02:54:43.548Z,20.97
2023-05-06T02:59:46.481Z,20.92
2023-05-06T03:04:49.297Z,20.90
2023-05-06T03:09:53.496Z,20.87
2023-05-06T03:14:56.979Z,20.80
2023-05-06T03:19:59.815Z,20.78
2023-05-06T03:25:05.080Z,20.76
2023-05-06T03:30:11.255Z,20.70
2023-05-06T03:35:14.697Z,20.68
2023-05-06T03:40:21.640Z,20.65
2023-05-06T03:45:25.099Z,20.61
2023-05-06T03:50:28.145Z,20.59
2023-05-06T03:55:32.316Z,20.56
2023-05-06T04:00:36.760Z,20.51
2023-05-06T04:05:39.647Z,20.50
2023-05-06T04:10:45.152Z,20.46
2023-05-06T04:15:54.577Z,20.43
2023-05-06T04:21:02.133Z,20.41
2023-05-06T04:26:08.801Z,20.38
2023-05-06T04:31:15.480Z,20.36
2023-05-06T04:36:24.797Z,20.35
2023-05-06T04:41:51.817Z,20.35
2023-05-06T04:47:02.227Z,20.32
2023-05-06T04:52:05.670Z,20.33
2023-05-06T04:57:11.299Z,20.21
2023-05-06T05:02:15.690Z,20.32
2023-05-06T05:07:19.540Z,20.34
2023-05-06T05:12:23.772Z,20.39
2023-05-06T05:17:28.593Z,20.35
2023-05-06T05:22:32.817Z,20.35
2023-05-06T05:27:37.726Z,20.34
2023-05-06T05:32:40.638Z,20.35
2023-05-06T05:37:43.593Z,20.42
2023-05-06T05:42:48.312Z,20.53
2023-05-06T05:48:00.768Z,20.63
2023-05-06T05:53:03.631Z,20.74
2023-05-06T05:58:08.304Z,20.79
2023-05-06T06:03:11.595Z,20.82
2023-05-06T06:08:14.760Z,20.81
2023-05-06T06:13:19.257Z,20.77
2023-05-06T06:18:22.176Z,20.70
2023-05-06T06:23:25.402Z,20.67
2023-05-06T06:28:29.733Z,20.65
2023-05-06T06:33:32.589Z,20.76
2023-05-06T06:38:35.737Z,20.99
2023-05-06T06:43:40.162Z,21.01
2023-05-06T06:48:52.379Z,20.98
2023-05-06T06:53:55.211Z,20.96
2023-05-06T06:58:59.443Z,20.97
2023-05-06T07:04:02.708Z,21.01
2023-05-06T07:09:06.409Z,21.01
2023-05-06T07:14:10.527Z,20.97
2023-05-06T07:19:13.314Z,20.87
2023-05-06T07:24:16.156Z,20.55
2023-05-06T07:29:20.551Z,19.06
2023-05-06T07:34:23.403Z,18.24
2023-05-06T07:39:26.302Z,17.98
2023-05-06T07:44:30.425Z,17.62
2023-05-06T07:49:34.945Z,17.66
2023-05-06T07:54:37.804Z,17.35
2023-05-06T07:59:42.191Z,17.40
2023-05-06T08:04:45.407Z,16.94
2023-05-06T08:09:48.341Z,17.94
2023-05-06T08:14:52.594Z,18.35
2023-05-06T08:19:55.455Z,18.86
2023-05-06T08:24:58.725Z,19.08
2023-05-06T08:30:03.087Z,19.29
2023-05-06T08:35:06.757Z,19.50
2023-05-06T08:40:11.158Z,19.67
2023-05-06T08:45:15.821Z,19.77
2023-05-06T08:50:18.571Z,19.85
2023-05-06T08:55:21.739Z,19.97
2023-05-06T09:00:26.218Z,20.10
2023-05-06T09:05:29.651Z,20.21
2023-05-06T09:10:33.319Z,20.33
2023-05-06T09:15:43.846Z,20.39
2023-05-06T09:20:47.372Z,20.47
2023-05-06T09:25:51.146Z,20.59
2023-05-06T09:30:55.601Z,20.66
2023-05-06T09:35:58.557Z,20.71
2023-05-06T09:41:01.565Z,20.73
2023-05-06T09:46:06.092Z,20.72
2023-05-06T09:51:09.054Z,20.75
2023-05-06T09:56:12.085Z,20.73
2023-05-06T10:01:25.090Z,20.71
2023-05-06T10:06:32.004Z,20.73
2023-05-06T10:11:34.792Z,20.85
2023-05-06T10:16:40.524Z,20.94
2023-05-06T10:21:44.683Z,21.02
2023-05-06T10:26:47.951Z,21.09
2023-05-06T10:31:54.384Z,21.15
2023-05-06T10:36:57.780Z,21.19
2023-05-06T10:42:01.859Z,21.28
2023-05-06T10:47:06.129Z,21.35
2023-05-06T10:52:13.224Z,21.43
2023-05-06T10:57:16.126Z,21.44
2023-05-06T11:02:21.340Z,21.74
2023-05-06T11:07:24.662Z,21.57
2023-05-06T11:12:49.961Z,21.50
2023-05-06T11:17:55.357Z,21.52
2023-05-06T11:22:58.168Z,21.56
2023-05-06T11:28:01.447Z,21.60
2023-05-06T11:33:06.100Z,21.63
2023-05-06T11:38:09.009Z,21.65
2023-05-06T11:43:12.837Z,21.74
2023-05-06T11:48:17.626Z,21.79
2023-05-06T11:53:21.148Z,21.71
2023-05-06T11:58:25.645Z,21.70
2023-05-06T12:03:31.329Z,21.76
2023-05-06T12:08:34.937Z,21.81
2023-05-06T12:13:37.884Z,21.88
2023-05-06T12:18:42.047Z,21.67
2023-05-06T12:23:52.269Z,21.58
2023-05-06T12:29:08.662Z,21.54
2023-05-06T12:34:12.838Z,21.52
2023-05-06T12:39:17.603Z,21.48
2023-05-06T12:44:36.905Z,21.42
2023-05-06T12:49:48.618Z,21.42
2023-05-06T12:54:53.079Z,21.42
2023-05-06T12:59:56.329Z,21.39
2023-05-06T13:05:01.863Z,21.43
2023-05-06T13:10:06.203Z,21.39
2023-05-06T13:15:10.560Z,21.39
2023-05-06T13:20:14.967Z,21.43
2023-05-06T13:25:17.796Z,21.49
2023-05-06T13:30:20.776Z,21.45
2023-05-06T13:35:24.966Z,21.46
2023-05-06T13:40:27.762Z,21.44
2023-05-06T13:45:30.656Z,21.41
2023-05-06T13:50:36.030Z,21.41
2023-05-06T13:55:39.314Z,21.46
2023-05-06T14:00:42.184Z,21.49
2023-05-06T14:05:46.340Z,21.52
2023-05-06T14:10:49.732Z,21.46
2023-05-06T14:15:52.783Z,21.46
2023-05-06T14:20:57.280Z,21.51
2023-05-06T14:26:00.129Z,21.51
2023-05-06T14:31:03.113Z,21.46
2023-05-06T14:36:08.217Z,21.44
2023-05-06T14:41:11.447Z,21.46
2023-05-06T14:46:15.929Z,21.51
2023-05-06T14:51:20.488Z,21.49
2023-05-06T14:56:23.358Z,21.56
2023-05-06T15:01:26.338Z,21.56
2023-05-06T15:06:30.532Z,21.80
2023-05-06T15:11:33.488Z,21.96
2023-05-06T15:16:36.597Z,22.10
2023-05-06T15:21:40.782Z,22.22
2023-05-06T15:26:43.776Z,22.31
2023-05-06T15:31:46.771Z,22.24
2023-05-06T15:36:52.965Z,22.12
2023-05-06T15:41:55.893Z,22.09
2023-05-06T15:46:58.665Z,22.01
2023-05-06T15:52:02.881Z,21.95
2023-05-06T15:57:07.145Z,21.91
2023-05-06T16:07:17.531Z,23.43
2023-05-06T16:12:20.391Z,24.67
2023-05-06T16:17:23.243Z,25.14
2023-05-06T16:22:27.434Z,25.54
2023-05-06T16:27:30.388Z,25.63
2023-05-06T16:32:33.461Z,25.44
2023-05-06T16:37:37.893Z,25.20
2023-05-06T16:42:40.785Z,24.98
2023-05-06T16:47:44.348Z,24.91
2023-05-06T16:52:48.641Z,24.94
2023-05-06T16:57:51.569Z,24.71
2023-05-06T17:02:54.422Z,24.87
2023-05-06T17:07:59.271Z,24.99
2023-05-06T17:13:02.417Z,25.04
2023-05-06T17:18:05.454Z,24.85
2023-05-06T17:23:09.652Z,24.90
2023-05-06T17:28:12.563Z,24.67
2023-05-06T17:33:16.054Z,24.03
2023-05-06T17:38:20.446Z,23.64
2023-05-06T17:43:23.283Z,23.29
2023-05-06T17:48:26.043Z,23.09
2023-05-06T17:53:32.333Z,22.87
2023-05-06T17:58:35.179Z,22.62
2023-05-06T18:03:38.193Z,22.49
2023-05-06T18:08:44.361Z,22.39
2023-05-06T18:13:47.149Z,22.30
2023-05-06T18:18:49.951Z,22.26
2023-05-06T18:24:01.910Z,22.19
2023-05-06T18:29:08.689Z,22.16
2023-05-06T18:34:11.521Z,22.10
2023-05-06T18:39:15.674Z,22.05
2023-05-06T18:44:18.579Z,22.03
2023-05-06T18:49:23.156Z,21.98
2023-05-06T18:54:27.361Z,21.98
2023-05-06T18:59:30.148Z,21.96
2023-05-06T19:04:33.491Z,21.95
2023-05-06T19:09:38.419Z,21.96
2023-05-06T19:14:43.813Z,21.94
2023-05-06T19:19:48.596Z,21.96
2023-05-06T19:24:52.772Z,21.96
2023-05-06T19:29:55.698Z,21.97
2023-05-06T19:34:59.042Z,21.98
2023-05-06T19:40:04.097Z,21.98
2023-05-06T19:45:11.002Z,21.98
2023-05-06T19:50:14.056Z,21.99
2023-05-06T19:55:18.532Z,22.00
2023-05-06T20:00:32.959Z,22.01
2023-05-06T20:05:35.869Z,22.03
2023-05-06T20:10:40.166Z,22.02
2023-05-06T20:15:43.286Z,22.05
2023-05-06T20:20:47.160Z,22.05
2023-05-06T20:25:51.355Z,22.06
2023-05-06T20:30:55.469Z,22.06
2023-05-06T20:35:58.236Z,22.07
2023-05-06T20:41:02.863Z,22.08
2023-05-06T20:46:06.622Z,22.09
2023-05-06T20:51:09.530Z,22.09
2023-05-06T20:56:20.206Z,22.11
2023-05-06T21:01:24.201Z,22.10
2023-05-06T21:06:27.004Z,22.16
2023-05-06T21:11:31.080Z,22.13
2023-05-06T21:16:33.936Z,22.14
2023-05-06T21:21:36.780Z,22.16
2023-05-06T21:26:41.098Z,22.15
2023-05-06T21:31:43.979Z,22.18
2023-05-06T21:36:46.809Z,22.20
2023-05-06T21:41:50.907Z,22.20
2023-05-06T21:46:53.851Z,22.19
2023-05-06T21:51:56.644Z,22.24
2023-05-06T21:57:00.837Z,22.24
2023-05-06T22:02:03.859Z,22.26
2023-05-06T22:07:06.764Z,22.26
2023-05-06T22:12:12.548Z,22.27
2023-05-06T22:17:15.648Z,22.25
2023-05-06T22:22:18.488Z,22.18
2023-05-06T22:27:22.631Z,22.19
2023-05-06T22:32:25.496Z,22.16
2023-05-06T22:37:28.310Z,22.13
2023-05-06T22:42:32.526Z,22.11
2023-05-06T22:47:35.324Z,22.09
2023-05-06T22:52:38.921Z,22.04
2023-05-06T22:57:43.088Z,22.02
2023-05-06T23:02:46.122Z,22.00
2023-05-06T23:07:48.946Z,21.98
2023-05-06T23:12:53.292Z,21.96
2023-05-06T23:17:56.089Z,21.95
2023-05-06T23:22:59.218Z,21.93
2023-05-06T23:28:03.461Z,21.92
2023-05-06T23:33:06.914Z,21.88
2023-05-06T23:38:09.728Z,21.94
2023-05-06T23:43:13.847Z,21.92
2023-05-06T23:48:16.617Z,21.91
2023-05-06T23:53:19.400Z,21.91
2023-05-06T23:58:23.560Z,21.92
